Time;durP1;ratioP1;P1;durP2;ratioP2;P2;SDS_P1;SDS_P2;PMS_P1;PMS_P2;Temp;Humidity;BMP_temperature;BMP_pressure;BME280_temperature;BME280_humidity;BME280_pressure;Samples;Min_cycle;Max_cycle;Signal;HPM_P1;HPM_P2
2023/09/15 00:00:41;;;;;;;;;;;22.90;54.70;;;;;;5033244;28;87607;-60
2023/09/15 00:03:07;;;;;;;;;;;22.90;54.70;;;;;;5030304;28;88163;-61
2023/09/15 00:05:33;;;;;;;;;;;22.80;54.70;;;;;;5033164;28;87078;-61
2023/09/15 00:08:00;;;;;;;;;;;22.80;54.80;;;;;;5031315;28;87970;-61
2023/09/15 00:10:26;;;;;;;;;;;22.80;54.80;;;;;;5031443;28;87442;-60
2023/09/15 00:12:52;;;;;;;;;;;22.80;54.80;;;;;;5030206;28;87165;-59
2023/09/15 00:15:18;;;;;;;;;;;22.80;54.70;;;;;;5036244;28;87636;-60
2023/09/15 00:17:44;;;;;;;;;;;22.80;54.80;;;;;;5029896;28;87268;-59
2023/09/15 00:20:13;;;;;;;;;;;22.80;54.80;;;;;;5030641;28;87688;-61
2023/09/15 00:22:51;;;;;;;;;;;22.70;54.10;;;;;;5031750;28;88197;-60
2023/09/15 00:25:20;;;;;;;;;;;22.80;54.80;;;;;;5034224;28;86296;-60
2023/09/15 00:27:46;;;;;;;;;;;22.70;54.70;;;;;;5028430;28;87582;-59
2023/09/15 00:30:13;;;;;;;;;;;22.70;54.70;;;;;;5032358;28;88183;-58
2023/09/15 00:32:39;;;;;;;;;;;22.70;54.70;;;;;;5031762;28;88092;-60
2023/09/15 00:35:05;;;;;;;;;;;22.70;54.70;;;;;;5030545;27;88428;-60
2023/09/15 00:37:30;;;;;;;;;;;22.70;54.80;;;;;;5035850;28;88316;-60
2023/09/15 00:39:57;;;;;;;;;;;22.70;54.80;;;;;;5029774;28;87570;-60
2023/09/15 00:42:23;;;;;;;;;;;22.70;54.80;;;;;;5030554;28;88088;-61
2023/09/15 00:44:48;;;;;;;;;;;22.60;54.80;;;;;;5031078;28;87250;-61
2023/09/15 00:47:15;;;;;;;;;;;22.60;54.80;;;;;;5030614;28;87698;-61
2023/09/15 00:49:41;;;;;;;;;;;22.60;54.80;;;;;;5032198;28;87570;-60
2023/09/15 00:52:07;;;;;;;;;;;22.60;54.80;;;;;;5030360;28;87116;-60
2023/09/15 00:54:32;;;;;;;;;;;22.60;54.80;;;;;;5033137;28;87644;-60
2023/09/15 00:56:59;;;;;;;;;;;22.60;54.80;;;;;;5028768;28;88134;-59
2023/09/15 00:59:25;;;;;;;;;;;22.60;54.80;;;;;;5034741;28;87061;-59
2023/09/15 01:01:51;;;;;;;;;;;22.60;54.90;;;;;;5029245;27;88297;-60
2023/09/15 01:04:17;;;;;;;;;;;22.60;54.80;;;;;;5030765;27;87003;-60
2023/09/15 01:06:45;;;;;;;;;;;22.60;54.80;;;;;;5034387;28;89636;-61
2023/09/15 01:09:11;;;;;;;;;;;22.60;54.80;;;;;;5032622;28;88712;-60
2023/09/15 01:11:36;;;;;;;;;;;22.60;54.90;;;;;;5032991;28;87129;-61
2023/09/15 01:14:02;;;;;;;;;;;22.60;54.80;;;;;;5033967;28;87986;-60
2023/09/15 01:16:46;;;;;;;;;;;22.50;54.80;;;;;;5033812;28;88200;-60
2023/09/15 01:19:30;;;;;;;;;;;22.50;54.80;;;;;;5033381;28;86993;-61
2023/09/15 01:21:59;;;;;;;;;;;22.50;54.80;;;;;;5034841;27;88035;-61
2023/09/15 01:24:41;;;;;;;;;;;22.50;54.90;;;;;;5033457;28;87037;-60
2023/09/15 01:27:09;;;;;;;;;;;22.50;54.80;;;;;;5031530;28;91024;-60
2023/09/15 01:29:38;;;;;;;;;;;22.50;54.70;;;;;;5029938;28;88723;-60
2023/09/15 01:32:08;;;;;;;;;;;22.50;54.80;;;;;;5031798;28;87083;-61
2023/09/15 01:34:37;;;;;;;;;;;22.50;54.80;;;;;;5033806;28;87317;-61
2023/09/15 01:37:03;;;;;;;;;;;22.50;54.70;;;;;;5035659;28;88550;-61
2023/09/15 01:39:30;;;;;;;;;;;22.50;54.70;;;;;;5033224;28;86315;-61
2023/09/15 01:42:02;;;;;;;;;;;22.50;54.70;;;;;;5035402;28;87070;-59
2023/09/15 01:44:27;;;;;;;;;;;22.50;54.70;;;;;;5036188;28;88510;-61
2023/09/15 01:46:53;;;;;;;;;;;22.40;54.60;;;;;;5031366;28;88871;-59
2023/09/15 01:49:19;;;;;;;;;;;22.50;54.70;;;;;;5031548;28;88312;-59
2023/09/15 01:51:45;;;;;;;;;;;22.50;54.70;;;;;;5035675;28;87159;-60
2023/09/15 01:54:11;;;;;;;;;;;22.40;54.60;;;;;;5032941;28;87699;-59
2023/09/15 01:56:37;;;;;;;;;;;22.40;54.60;;;;;;5034328;28;88356;-60
2023/09/15 01:59:02;;;;;;;;;;;22.40;54.60;;;;;;5033421;28;87310;-61
2023/09/15 02:01:28;;;;;;;;;;;22.40;54.60;;;;;;5033338;28;87928;-60
2023/09/15 02:03:53;;;;;;;;;;;22.40;54.60;;;;;;5032075;28;87436;-60
2023/09/15 02:06:19;;;;;;;;;;;22.40;54.60;;;;;;5038289;28;87064;-60
2023/09/15 02:08:45;;;;;;;;;;;22.40;54.60;;;;;;5031883;28;88109;-61
2023/09/15 02:11:10;;;;;;;;;;;22.40;54.60;;;;;;5034527;28;88053;-59
2023/09/15 02:13:37;;;;;;;;;;;22.30;54.50;;;;;;5031992;28;88829;-61
2023/09/15 02:16:03;;;;;;;;;;;22.30;54.50;;;;;;5032964;27;88529;-60
2023/09/15 02:18:29;;;;;;;;;;;22.30;54.60;;;;;;5031514;28;86941;-59
2023/09/15 02:20:55;;;;;;;;;;;22.30;54.60;;;;;;5032870;28;87740;-61
2023/09/15 02:23:21;;;;;;;;;;;22.30;54.60;;;;;;5034870;28;88035;-60
2023/09/15 02:25:46;;;;;;;;;;;22.20;54.50;;;;;;5034819;28;87168;-60
2023/09/15 02:28:12;;;;;;;;;;;22.30;54.60;;;;;;5035011;28;87597;-61
2023/09/15 02:30:37;;;;;;;;;;;22.30;54.60;;;;;;5029933;28;87143;-61
2023/09/15 02:33:03;;;;;;;;;;;22.30;54.60;;;;;;5031673;27;87552;-60
2023/09/15 02:35:28;;;;;;;;;;;22.20;54.50;;;;;;5032892;28;88457;-59
2023/09/15 02:37:54;;;;;;;;;;;22.30;54.60;;;;;;5032648;28;87139;-60
2023/09/15 02:40:21;;;;;;;;;;;22.30;54.60;;;;;;5034616;28;87652;-60
2023/09/15 02:42:47;;;;;;;;;;;22.20;54.60;;;;;;5031047;28;88258;-60
2023/09/15 02:45:12;;;;;;;;;;;22.20;54.60;;;;;;5032464;28;87088;-60
2023/09/15 02:47:38;;;;;;;;;;;22.20;54.60;;;;;;5034755;28;87530;-60
2023/09/15 02:50:03;;;;;;;;;;;22.20;54.60;;;;;;5032899;28;87163;-60
2023/09/15 02:52:29;;;;;;;;;;;22.20;54.60;;;;;;5033476;27;87550;-60
2023/09/15 02:54:54;;;;;;;;;;;22.20;54.60;;;;;;5033625;28;88243;-61
2023/09/15 02:57:20;;;;;;;;;;;22.20;54.60;;;;;;5031816;28;87099;-61
2023/09/15 02:59:45;;;;;;;;;;;22.10;54.60;;;;;;5032069;28;88078;-60
2023/09/15 03:02:12;;;;;;;;;;;22.10;54.60;;;;;;5031200;28;88303;-61
2023/09/15 03:04:39;;;;;;;;;;;22.10;54.70;;;;;;5032104;28;87655;-61
2023/09/15 03:07:05;;;;;;;;;;;22.10;54.60;;;;;;5033055;27;87543;-60
2023/09/15 03:09:31;;;;;;;;;;;22.10;54.70;;;;;;5036088;28;88258;-60
2023/09/15 03:11:57;;;;;;;;;;;22.10;54.70;;;;;;5031866;27;87041;-61
2023/09/15 03:14:23;;;;;;;;;;;22.10;54.70;;;;;;5033080;28;88514;-60
2023/09/15 03:16:48;;;;;;;;;;;22.00;54.60;;;;;;5033486;27;88552;-59
2023/09/15 03:19:13;;;;;;;;;;;22.00;54.60;;;;;;5030798;28;87024;-61
2023/09/15 03:21:39;;;;;;;;;;;22.00;54.70;;;;;;5031728;28;88176;-61
2023/09/15 03:24:06;;;;;;;;;;;22.00;54.60;;;;;;5032481;28;88049;-61
2023/09/15 03:26:32;;;;;;;;;;;22.00;54.70;;;;;;5032835;28;88712;-61
2023/09/15 03:28:57;;;;;;;;;;;22.00;54.70;;;;;;5031367;28;88293;-59
2023/09/15 03:31:23;;;;;;;;;;;22.00;54.70;;;;;;5035757;28;86999;-61
2023/09/15 03:33:48;;;;;;;;;;;21.90;54.60;;;;;;5029832;28;88178;-60
2023/09/15 03:36:14;;;;;;;;;;;21.90;54.70;;;;;;5033794;28;87119;-60
2023/09/15 03:38:40;;;;;;;;;;;21.90;54.70;;;;;;5031758;28;87568;-60
2023/09/15 03:41:06;;;;;;;;;;;21.90;54.80;;;;;;5031324;28;90394;-60
2023/09/15 03:43:32;;;;;;;;;;;21.90;54.70;;;;;;5033261;28;87200;-59
2023/09/15 03:45:58;;;;;;;;;;;21.80;54.70;;;;;;5033173;27;87958;-60
2023/09/15 03:48:24;;;;;;;;;;;21.80;54.70;;;;;;5028560;28;89071;-59
2023/09/15 03:50:50;;;;;;;;;;;21.80;54.70;;;;;;5030507;28;87077;-61
2023/09/15 03:53:17;;;;;;;;;;;21.80;54.30;;;;;;5036012;28;87573;-59
2023/09/15 03:55:42;;;;;;;;;;;21.80;54.90;;;;;;5031825;28;87029;-60
2023/09/15 03:58:08;;;;;;;;;;;21.80;54.90;;;;;;5032216;27;87579;-60
2023/09/15 04:00:33;;;;;;;;;;;21.80;54.80;;;;;;5031589;28;88432;-60
2023/09/15 04:02:59;;;;;;;;;;;21.80;54.80;;;;;;5027470;28;87197;-60
2023/09/15 04:05:24;;;;;;;;;;;21.80;54.80;;;;;;5033446;28;88022;-58
2023/09/15 04:07:50;;;;;;;;;;;21.80;54.90;;;;;;5025091;28;88230;-60
2023/09/15 04:10:15;;;;;;;;;;;21.70;54.90;;;;;;5030397;28;87188;-60
2023/09/15 04:12:42;;;;;;;;;;;21.70;54.80;;;;;;5031068;28;88148;-59
2023/09/15 04:15:09;;;;;;;;;;;21.70;54.80;;;;;;5034047;28;88414;-59
2023/09/15 04:17:34;;;;;;;;;;;21.70;55.40;;;;;;5029943;28;89214;-60
2023/09/15 04:20:00;;;;;;;;;;;21.70;54.80;;;;;;5026629;28;88127;-60
2023/09/15 04:22:28;;;;;;;;;;;21.70;54.80;;;;;;5032195;28;87272;-60
2023/09/15 04:24:54;;;;;;;;;;;21.70;54.80;;;;;;5030737;28;87576;-60
2023/09/15 04:27:19;;;;;;;;;;;21.70;54.80;;;;;;5027359;28;88339;-60
2023/09/15 04:29:55;;;;;;;;;;;21.70;54.90;;;;;;5029072;28;86394;-63
2023/09/15 04:32:21;;;;;;;;;;;21.60;54.80;;;;;;5032750;28;88182;-60
2023/09/15 04:34:47;;;;;;;;;;;21.60;54.90;;;;;;5032743;28;88323;-60
2023/09/15 04:37:12;;;;;;;;;;;21.60;54.90;;;;;;5032249;28;88053;-61
2023/09/15 04:39:38;;;;;;;;;;;21.60;54.90;;;;;;5032552;27;88200;-61
2023/09/15 04:42:04;;;;;;;;;;;21.60;54.90;;;;;;5035643;28;87109;-60
2023/09/15 04:44:30;;;;;;;;;;;21.60;54.90;;;;;;5034361;27;88513;-61
2023/09/15 04:46:55;;;;;;;;;;;21.50;54.80;;;;;;5031858;28;88001;-60
2023/09/15 04:49:21;;;;;;;;;;;21.60;54.80;;;;;;5027884;28;87255;-60
2023/09/15 04:51:47;;;;;;;;;;;21.50;54.80;;;;;;5033717;28;88076;-60
2023/09/15 04:54:12;;;;;;;;;;;21.60;54.90;;;;;;5034166;28;87979;-60
2023/09/15 04:56:38;;;;;;;;;;;21.50;54.80;;;;;;5036994;28;87152;-60
2023/09/15 04:59:03;;;;;;;;;;;21.50;54.80;;;;;;5030913;28;88267;-60
2023/09/15 05:01:29;;;;;;;;;;;21.50;54.80;;;;;;5029679;28;88241;-59
2023/09/15 05:03:54;;;;;;;;;;;21.50;54.90;;;;;;5030178;28;89007;-60
2023/09/15 05:06:20;;;;;;;;;;;21.50;54.90;;;;;;5034490;28;89169;-61
2023/09/15 05:08:47;;;;;;;;;;;21.50;54.80;;;;;;5031947;28;87097;-60
2023/09/15 05:11:12;;;;;;;;;;;21.50;54.90;;;;;;5030248;28;87688;-60
2023/09/15 05:13:38;;;;;;;;;;;21.50;54.90;;;;;;5034372;28;88264;-60
2023/09/15 05:16:03;;;;;;;;;;;21.50;54.90;;;;;;5030944;28;87145;-61
2023/09/15 05:18:30;;;;;;;;;;;21.40;54.80;;;;;;5033583;27;87520;-59
2023/09/15 05:20:56;;;;;;;;;;;21.40;54.90;;;;;;5031649;28;87115;-61
2023/09/15 05:23:22;;;;;;;;;;;21.50;54.90;;;;;;5035385;28;87656;-60
2023/09/15 05:25:51;;;;;;;;;;;21.40;54.80;;;;;;5029218;28;89353;-60
2023/09/15 05:28:16;;;;;;;;;;;21.50;54.80;;;;;;5027200;28;87128;-59
2023/09/15 05:30:42;;;;;;;;;;;21.40;54.90;;;;;;5033943;28;87829;-60
2023/09/15 05:33:08;;;;;;;;;;;21.40;54.80;;;;;;5032638;28;87440;-60
2023/09/15 05:35:34;;;;;;;;;;;21.40;54.90;;;;;;5030711;28;88125;-60
2023/09/15 05:38:00;;;;;;;;;;;21.40;54.90;;;;;;5024946;28;87601;-60
2023/09/15 05:40:25;;;;;;;;;;;21.40;54.90;;;;;;5038617;28;88234;-59
2023/09/15 05:42:53;;;;;;;;;;;21.40;54.90;;;;;;5033658;28;86760;-60
2023/09/15 05:45:19;;;;;;;;;;;21.40;54.90;;;;;;5029198;28;88217;-61
2023/09/15 05:47:44;;;;;;;;;;;21.40;54.90;;;;;;5032393;28;88246;-59
2023/09/15 05:50:10;;;;;;;;;;;21.40;55.00;;;;;;5031126;28;87990;-60
2023/09/15 05:52:35;;;;;;;;;;;21.40;54.90;;;;;;5032073;28;87372;-60
2023/09/15 05:55:01;;;;;;;;;;;21.40;55.00;;;;;;5030549;28;88021;-60
2023/09/15 05:57:26;;;;;;;;;;;21.40;55.00;;;;;;5030369;28;87103;-59
2023/09/15 05:59:52;;;;;;;;;;;21.40;54.90;;;;;;5035038;28;88296;-59
2023/09/15 06:02:20;;;;;;;;;;;21.40;55.00;;;;;;5035499;28;87048;-60
2023/09/15 06:04:46;;;;;;;;;;;21.40;54.90;;;;;;5029394;28;88520;-60
2023/09/15 06:07:11;;;;;;;;;;;21.30;54.90;;;;;;5032298;28;86816;-61
2023/09/15 06:09:37;;;;;;;;;;;21.30;54.90;;;;;;5034991;28;87221;-60
2023/09/15 06:12:02;;;;;;;;;;;21.30;55.00;;;;;;5025039;28;91084;-61
2023/09/15 06:14:28;;;;;;;;;;;21.30;55.00;;;;;;5029318;27;88194;-60
2023/09/15 06:16:53;;;;;;;;;;;21.30;55.00;;;;;;5034701;28;89049;-61
2023/09/15 06:19:19;;;;;;;;;;;21.40;55.10;;;;;;5031555;28;87518;-60
2023/09/15 06:21:44;;;;;;;;;;;21.30;55.00;;;;;;5027888;28;87815;-59
2023/09/15 06:24:10;;;;;;;;;;;21.30;54.90;;;;;;5034065;28;87716;-61
2023/09/15 06:26:36;;;;;;;;;;;21.30;54.90;;;;;;5032693;28;87149;-61
2023/09/15 06:29:02;;;;;;;;;;;21.30;55.00;;;;;;5034288;28;87587;-60
2023/09/15 06:31:28;;;;;;;;;;;21.30;55.00;;;;;;5026864;28;87510;-59
2023/09/15 06:33:53;;;;;;;;;;;21.40;55.00;;;;;;5027062;28;87137;-60
2023/09/15 06:36:19;;;;;;;;;;;21.40;55.00;;;;;;5031393;28;87374;-60
2023/09/15 06:38:44;;;;;;;;;;;21.30;55.00;;;;;;5028464;28;88363;-60
2023/09/15 06:41:10;;;;;;;;;;;21.40;55.00;;;;;;5031141;28;87854;-61
2023/09/15 06:43:36;;;;;;;;;;;21.30;55.00;;;;;;5036532;28;87756;-61
2023/09/15 06:46:02;;;;;;;;;;;21.30;55.00;;;;;;5033695;28;87278;-59
2023/09/15 06:48:28;;;;;;;;;;;21.40;55.00;;;;;;5029773;27;88187;-59
2023/09/15 06:50:53;;;;;;;;;;;21.40;55.00;;;;;;5026879;28;90501;-61
2023/09/15 06:53:19;;;;;;;;;;;21.40;55.00;;;;;;5033662;28;87193;-59
2023/09/15 06:55:44;;;;;;;;;;;21.30;55.00;;;;;;5035314;28;87423;-61
2023/09/15 06:58:10;;;;;;;;;;;21.40;55.00;;;;;;5027546;28;88347;-60
2023/09/15 07:00:35;;;;;;;;;;;21.40;55.10;;;;;;5028867;28;87499;-60
2023/09/15 07:03:01;;;;;;;;;;;21.30;55.00;;;;;;5030170;28;87837;-60
2023/09/15 07:05:26;;;;;;;;;;;21.40;55.70;;;;;;5037295;28;88417;-61
2023/09/15 07:07:52;;;;;;;;;;;21.40;55.10;;;;;;5026694;28;88420;-61
2023/09/15 07:10:17;;;;;;;;;;;21.40;54.90;;;;;;5029454;28;88325;-61
2023/09/15 07:12:43;;;;;;;;;;;21.40;55.00;;;;;;5033462;28;87177;-59
2023/09/15 07:15:09;;;;;;;;;;;21.40;55.00;;;;;;5030985;28;87908;-60
2023/09/15 07:17:34;;;;;;;;;;;21.40;55.00;;;;;;5028157;28;90985;-59
2023/09/15 07:20:00;;;;;;;;;;;21.40;55.00;;;;;;5028127;28;86504;-60
2023/09/15 07:22:27;;;;;;;;;;;21.40;55.10;;;;;;5031363;28;88223;-61
2023/09/15 07:24:52;;;;;;;;;;;21.40;55.10;;;;;;5031522;28;88323;-60
2023/09/15 07:27:18;;;;;;;;;;;21.40;55.10;;;;;;5025431;28;88041;-61
2023/09/15 07:29:43;;;;;;;;;;;21.40;55.10;;;;;;5031687;28;88257;-61
2023/09/15 07:32:09;;;;;;;;;;;21.40;55.10;;;;;;5031845;28;87132;-60
2023/09/15 07:34:34;;;;;;;;;;;21.40;55.10;;;;;;5029918;28;87434;-61
2023/09/15 07:37:00;;;;;;;;;;;21.40;55.10;;;;;;5030480;28;88259;-60
2023/09/15 07:39:26;;;;;;;;;;;21.40;55.20;;;;;;5030892;28;87509;-60
2023/09/15 07:41:51;;;;;;;;;;;21.40;55.20;;;;;;5030975;28;87614;-58
2023/09/15 07:44:17;;;;;;;;;;;21.40;55.20;;;;;;5031495;28;87077;-61
2023/09/15 07:46:42;;;;;;;;;;;21.40;55.30;;;;;;5028660;28;87137;-59
2023/09/15 07:49:08;;;;;;;;;;;21.40;55.30;;;;;;5034747;28;87641;-61
2023/09/15 07:51:34;;;;;;;;;;;21.40;55.20;;;;;;5029161;28;88470;-60
2023/09/15 07:54:00;;;;;;;;;;;21.40;55.20;;;;;;5028622;28;88778;-60
2023/09/15 07:56:25;;;;;;;;;;;21.40;55.20;;;;;;5030165;28;88044;-61
2023/09/15 07:58:51;;;;;;;;;;;21.40;55.20;;;;;;5031657;28;87653;-60
2023/09/15 08:01:17;;;;;;;;;;;21.40;55.30;;;;;;5028864;28;88681;-60
2023/09/15 08:03:43;;;;;;;;;;;21.40;55.20;;;;;;5025879;28;87453;-59
2023/09/15 08:06:08;;;;;;;;;;;21.40;55.30;;;;;;5028638;28;87761;-59
2023/09/15 08:08:34;;;;;;;;;;;21.50;55.40;;;;;;5031927;28;87701;-59
2023/09/15 08:11:00;;;;;;;;;;;21.50;55.40;;;;;;5032990;28;88323;-60
2023/09/15 08:13:25;;;;;;;;;;;21.40;55.30;;;;;;5027592;28;87618;-60
2023/09/15 08:15:52;;;;;;;;;;;21.50;55.30;;;;;;5036364;28;88966;-60
2023/09/15 08:18:20;;;;;;;;;;;21.50;55.40;;;;;;5035901;28;87196;-61
2023/09/15 08:20:46;;;;;;;;;;;21.50;55.40;;;;;;5031012;28;87781;-59
2023/09/15 08:23:12;;;;;;;;;;;21.50;55.30;;;;;;5031419;28;91289;-59
2023/09/15 08:25:38;;;;;;;;;;;21.50;55.40;;;;;;5035825;28;87041;-61
2023/09/15 08:28:03;;;;;;;;;;;21.50;55.40;;;;;;5033842;27;87401;-60
2023/09/15 08:30:30;;;;;;;;;;;21.50;55.40;;;;;;5032919;28;88723;-59
2023/09/15 08:32:55;;;;;;;;;;;21.50;55.50;;;;;;5037228;28;86647;-59
2023/09/15 08:35:21;;;;;;;;;;;21.50;55.40;;;;;;5036770;28;87460;-60
2023/09/15 08:37:48;;;;;;;;;;;21.50;55.30;;;;;;5031613;28;89033;-60
2023/09/15 08:40:14;;;;;;;;;;;21.50;55.20;;;;;;5030701;28;88076;-60
2023/09/15 08:42:39;;;;;;;;;;;21.50;55.20;;;;;;5034113;28;87464;-60
2023/09/15 08:45:05;;;;;;;;;;;21.50;55.20;;;;;;5036737;28;87252;-59
2023/09/15 08:47:34;;;;;;;;;;;21.50;55.20;;;;;;5030966;27;88968;-59
2023/09/15 08:50:03;;;;;;;;;;;21.60;55.30;;;;;;5033923;28;89795;-60
2023/09/15 08:52:29;;;;;;;;;;;21.60;55.30;;;;;;5035600;28;87274;-60
2023/09/15 08:54:56;;;;;;;;;;;21.60;55.30;;;;;;5035843;28;88362;-59
2023/09/15 08:57:21;;;;;;;;;;;21.60;55.30;;;;;;5031678;28;86369;-61
2023/09/15 08:59:48;;;;;;;;;;;21.60;55.20;;;;;;5032428;28;86960;-59
2023/09/15 09:02:16;;;;;;;;;;;21.60;55.30;;;;;;5035945;28;87353;-60
2023/09/15 09:04:42;;;;;;;;;;;21.60;55.30;;;;;;5034009;28;88143;-60
2023/09/15 09:07:08;;;;;;;;;;;21.60;55.90;;;;;;5031785;27;88931;-60
2023/09/15 09:09:34;;;;;;;;;;;21.60;55.30;;;;;;5035182;28;88124;-59
2023/09/15 09:12:00;;;;;;;;;;;21.60;55.20;;;;;;5033709;28;89109;-60
2023/09/15 09:14:25;;;;;;;;;;;21.60;55.20;;;;;;5041571;28;87962;-60
2023/09/15 09:16:52;;;;;;;;;;;21.60;55.30;;;;;;5028067;28;87248;-60
2023/09/15 09:19:17;;;;;;;;;;;21.70;55.30;;;;;;5035866;28;87931;-60
2023/09/15 09:21:43;;;;;;;;;;;21.70;55.20;;;;;;5032100;28;87885;-59
2023/09/15 09:24:09;;;;;;;;;;;21.70;55.30;;;;;;5031635;27;87177;-60
2023/09/15 09:26:34;;;;;;;;;;;21.70;55.30;;;;;;5033882;27;88037;-61
2023/09/15 09:29:01;;;;;;;;;;;21.70;55.20;;;;;;5032233;28;89245;-59
2023/09/15 09:31:28;;;;;;;;;;;21.70;55.20;;;;;;5035440;28;87130;-60
2023/09/15 09:33:54;;;;;;;;;;;21.70;55.30;;;;;;5031936;28;87905;-59
2023/09/15 09:36:20;;;;;;;;;;;21.70;55.40;;;;;;5036626;28;88441;-60
2023/09/15 09:38:49;;;;;;;;;;;21.70;55.30;;;;;;5034625;28;87946;-60
2023/09/15 09:41:18;;;;;;;;;;;21.70;55.30;;;;;;5033331;28;87205;-60
2023/09/15 09:43:46;;;;;;;;;;;21.70;55.30;;;;;;5032133;28;87178;-60
2023/09/15 09:46:13;;;;;;;;;;;21.80;55.30;;;;;;5031139;28;88819;-60
2023/09/15 09:48:39;;;;;;;;;;;21.80;55.30;;;;;;5033414;28;88292;-60
2023/09/15 09:51:05;;;;;;;;;;;21.80;55.30;;;;;;5032071;28;88230;-60
2023/09/15 09:53:32;;;;;;;;;;;21.80;55.30;;;;;;5032794;28;88279;-60
2023/09/15 09:55:58;;;;;;;;;;;21.80;55.30;;;;;;5032419;28;87209;-61
2023/09/15 09:58:24;;;;;;;;;;;21.80;55.30;;;;;;5040075;28;87569;-59
2023/09/15 10:00:50;;;;;;;;;;;21.80;55.20;;;;;;5034001;28;88247;-59
2023/09/15 10:03:16;;;;;;;;;;;21.90;55.30;;;;;;5030791;28;87077;-59
2023/09/15 10:05:42;;;;;;;;;;;21.90;55.30;;;;;;5033116;28;87866;-60
2023/09/15 10:08:08;;;;;;;;;;;21.90;55.30;;;;;;5032632;28;88180;-59
2023/09/15 10:10:38;;;;;;;;;;;21.90;55.30;;;;;;5026732;28;86484;-60
2023/09/15 10:13:03;;;;;;;;;;;21.90;55.40;;;;;;5033052;27;88662;-60
2023/09/15 10:15:29;;;;;;;;;;;22.00;55.40;;;;;;5032352;28;87753;-60
2023/09/15 10:17:55;;;;;;;;;;;22.00;55.30;;;;;;5034666;28;88078;-60
2023/09/15 10:20:22;;;;;;;;;;;22.00;55.30;;;;;;5031960;27;88770;-60
2023/09/15 10:22:48;;;;;;;;;;;22.00;55.30;;;;;;5031337;28;87275;-60
2023/09/15 10:25:17;;;;;;;;;;;22.00;55.40;;;;;;5032904;27;87412;-60
2023/09/15 10:27:44;;;;;;;;;;;22.10;55.40;;;;;;5032197;28;88688;-60
2023/09/15 10:30:10;;;;;;;;;;;22.10;55.50;;;;;;5032397;28;87147;-59
2023/09/15 10:32:39;;;;;;;;;;;22.10;55.50;;;;;;5034016;27;87029;-61
2023/09/15 10:35:05;;;;;;;;;;;22.10;55.50;;;;;;5035041;28;87971;-59
2023/09/15 10:37:32;;;;;;;;;;;22.10;55.50;;;;;;5031316;28;87710;-59
2023/09/15 10:39:59;;;;;;;;;;;22.10;55.50;;;;;;5033701;27;87860;-59
2023/09/15 10:42:25;;;;;;;;;;;22.10;55.50;;;;;;5033896;28;88666;-61
2023/09/15 10:44:50;;;;;;;;;;;22.20;55.60;;;;;;5031455;28;89312;-60
2023/09/15 10:47:17;;;;;;;;;;;22.20;55.60;;;;;;5029439;28;88322;-61
2023/09/15 10:49:52;;;;;;;;;;;22.20;55.50;;;;;;5030596;28;87234;-60
2023/09/15 10:52:18;;;;;;;;;;;22.20;55.60;;;;;;5030638;28;88149;-60
2023/09/15 10:54:44;;;;;;;;;;;22.20;55.60;;;;;;5032896;28;88660;-60
2023/09/15 10:57:09;;;;;;;;;;;22.20;55.50;;;;;;5030292;28;88200;-60
2023/09/15 10:59:35;;;;;;;;;;;22.30;55.60;;;;;;5031347;28;86662;-59
2023/09/15 11:02:01;;;;;;;;;;;22.30;55.60;;;;;;5035777;28;88367;-60
2023/09/15 11:04:28;;;;;;;;;;;22.30;55.60;;;;;;5032119;28;87910;-61
2023/09/15 11:06:56;;;;;;;;;;;22.30;55.60;;;;;;5024535;28;89197;-61
2023/09/15 11:09:21;;;;;;;;;;;22.30;55.50;;;;;;5031527;28;87122;-60
2023/09/15 11:11:48;;;;;;;;;;;22.30;55.50;;;;;;5033010;27;88945;-60
2023/09/15 11:14:16;;;;;;;;;;;22.40;55.60;;;;;;5029359;28;90500;-60
2023/09/15 11:16:42;;;;;;;;;;;22.40;55.60;;;;;;5029397;28;87137;-61
2023/09/15 11:19:08;;;;;;;;;;;22.40;55.60;;;;;;5033412;28;88191;-60
2023/09/15 11:21:33;;;;;;;;;;;22.40;55.60;;;;;;5030643;28;88130;-60
2023/09/15 11:23:59;;;;;;;;;;;22.40;55.50;;;;;;5030587;28;86711;-60
2023/09/15 11:26:25;;;;;;;;;;;22.40;55.40;;;;;;5030246;28;88464;-60
2023/09/15 11:28:53;;;;;;;;;;;22.40;55.50;;;;;;5032857;28;87118;-60
2023/09/15 11:31:19;;;;;;;;;;;22.50;55.60;;;;;;5032877;28;89156;-60
2023/09/15 11:33:45;;;;;;;;;;;22.50;55.50;;;;;;5025665;28;88924;-59
2023/09/15 11:36:11;;;;;;;;;;;22.50;55.50;;;;;;5031313;28;87101;-60
2023/09/15 11:38:36;;;;;;;;;;;22.50;55.40;;;;;;5030214;28;87369;-60
2023/09/15 11:41:04;;;;;;;;;;;22.50;55.50;;;;;;5027135;28;88095;-60
2023/09/15 11:43:30;;;;;;;;;;;22.50;55.50;;;;;;5028659;28;87191;-60
2023/09/15 11:45:55;;;;;;;;;;;22.60;55.60;;;;;;5032845;28;86965;-60
2023/09/15 11:48:22;;;;;;;;;;;22.60;55.50;;;;;;5033622;28;86846;-60
2023/09/15 11:50:47;;;;;;;;;;;22.60;55.50;;;;;;5029063;28;87010;-61
2023/09/15 11:53:13;;;;;;;;;;;22.60;55.40;;;;;;5030268;28;88469;-61
2023/09/15 11:55:38;;;;;;;;;;;22.60;55.40;;;;;;5028346;28;88920;-61
2023/09/15 11:58:04;;;;;;;;;;;22.60;55.40;;;;;;5033177;28;87759;-60
2023/09/15 12:00:31;;;;;;;;;;;22.60;55.40;;;;;;5028498;28;88249;-60
2023/09/15 12:02:58;;;;;;;;;;;22.70;55.40;;;;;;5028143;28;87131;-61
2023/09/15 12:05:25;;;;;;;;;;;22.70;55.40;;;;;;5030144;28;87790;-61
2023/09/15 12:07:50;;;;;;;;;;;22.70;55.30;;;;;;5032969;28;90965;-61
2023/09/15 12:10:17;;;;;;;;;;;22.70;55.30;;;;;;5030372;28;87776;-60
2023/09/15 12:12:42;;;;;;;;;;;22.80;55.30;;;;;;5027587;28;87162;-60
2023/09/15 12:15:08;;;;;;;;;;;22.80;55.40;;;;;;5031553;28;87196;-61
2023/09/15 12:17:34;;;;;;;;;;;22.80;55.40;;;;;;5033294;27;87674;-60
2023/09/15 12:20:02;;;;;;;;;;;22.80;55.30;;;;;;5030477;28;89794;-59
2023/09/15 12:22:36;;;;;;;;;;;22.80;55.20;;;;;;5028406;28;87107;-61
2023/09/15 12:25:02;;;;;;;;;;;22.80;55.20;;;;;;5028875;28;88323;-59
2023/09/15 12:27:28;;;;;;;;;;;22.90;55.20;;;;;;5030011;28;88128;-60
2023/09/15 12:29:56;;;;;;;;;;;22.90;55.20;;;;;;5032017;28;87373;-60
2023/09/15 12:32:30;;;;;;;;;;;22.90;55.10;;;;;;5029241;28;88479;-60
2023/09/15 12:34:56;;;;;;;;;;;22.90;55.10;;;;;;5030573;28;87616;-60
2023/09/15 12:37:24;;;;;;;;;;;22.90;55.10;;;;;;5032452;28;87494;-60
2023/09/15 12:39:50;;;;;;;;;;;23.00;55.10;;;;;;5022526;28;88923;-60
2023/09/15 12:42:15;;;;;;;;;;;23.00;55.10;;;;;;5032972;28;87508;-60
2023/09/15 12:44:41;;;;;;;;;;;23.00;55.10;;;;;;5029027;28;88699;-60
2023/09/15 12:47:06;;;;;;;;;;;23.00;55.00;;;;;;5033789;28;88180;-60
2023/09/15 12:49:32;;;;;;;;;;;23.00;55.00;;;;;;5034439;28;87811;-60
2023/09/15 12:51:58;;;;;;;;;;;23.00;55.00;;;;;;5029208;28;88158;-60
2023/09/15 12:54:23;;;;;;;;;;;23.00;55.00;;;;;;5030022;28;87114;-60
2023/09/15 12:56:56;;;;;;;;;;;23.10;55.10;;;;;;5030361;27;87685;-60
2023/09/15 12:59:29;;;;;;;;;;;23.10;55.00;;;;;;5027990;28;88357;-60
2023/09/15 13:01:55;;;;;;;;;;;23.10;55.00;;;;;;5035473;28;86559;-60
2023/09/15 13:04:22;;;;;;;;;;;23.10;54.90;;;;;;5031157;28;87433;-60
2023/09/15 13:06:48;;;;;;;;;;;23.10;54.90;;;;;;5033074;28;88306;-60
2023/09/15 13:09:14;;;;;;;;;;;23.20;54.90;;;;;;5029276;28;88300;-60
2023/09/15 13:11:40;;;;;;;;;;;23.20;54.90;;;;;;5035345;28;89093;-60
2023/09/15 13:14:05;;;;;;;;;;;23.20;54.90;;;;;;5032346;28;87170;-59
2023/09/15 13:16:31;;;;;;;;;;;23.20;54.80;;;;;;5030125;28;87805;-54
2023/09/15 13:18:56;;;;;;;;;;;23.30;54.80;;;;;;5032007;28;88319;-62
2023/09/15 13:21:22;;;;;;;;;;;23.30;54.40;;;;;;5032472;28;87209;-57
2023/09/15 13:23:48;;;;;;;;;;;23.30;54.80;;;;;;5034652;28;87622;-56
2023/09/15 13:26:13;;;;;;;;;;;23.30;55.60;;;;;;5029741;28;87622;-58
2023/09/15 13:28:39;;;;;;;;;;;23.40;56.20;;;;;;5032494;28;87055;-58
2023/09/15 13:31:05;;;;;;;;;;;23.50;56.40;;;;;;5033605;28;87954;-55
2023/09/15 13:33:30;;;;;;;;;;;23.50;56.30;;;;;;5035370;28;90387;-59
2023/09/15 13:35:56;;;;;;;;;;;23.50;56.70;;;;;;5033461;28;88659;-61
2023/09/15 13:38:21;;;;;;;;;;;23.60;56.50;;;;;;5028995;28;87889;-50
2023/09/15 13:40:47;;;;;;;;;;;23.60;56.50;;;;;;5034983;28;87026;-58
2023/09/15 13:43:12;;;;;;;;;;;23.70;57.30;;;;;;5031936;28;87617;-53
2023/09/15 13:45:41;;;;;;;;;;;23.80;57.10;;;;;;5027359;28;88646;-57
2023/09/15 13:48:06;;;;;;;;;;;24.00;57.70;;;;;;5034996;28;87095;-52
2023/09/15 13:50:32;;;;;;;;;;;24.20;58.30;;;;;;5034563;28;88821;-52
2023/09/15 13:52:57;;;;;;;;;;;24.20;56.80;;;;;;5032066;28;87354;-55
2023/09/15 13:55:23;;;;;;;;;;;24.20;57.10;;;;;;5027866;28;87202;-57
2023/09/15 13:57:48;;;;;;;;;;;24.20;56.00;;;;;;5033959;28;89218;-56
2023/09/15 14:00:14;;;;;;;;;;;24.30;57.30;;;;;;5034471;28;87181;-59
2023/09/15 14:02:41;;;;;;;;;;;24.40;59.00;;;;;;5031145;28;87702;-54
2023/09/15 14:05:07;;;;;;;;;;;24.40;56.50;;;;;;5029061;28;88546;-61
2023/09/15 14:07:33;;;;;;;;;;;24.50;56.90;;;;;;5034364;28;87116;-59
2023/09/15 14:09:59;;;;;;;;;;;24.50;57.40;;;;;;5027854;28;88199;-56